sensor_id;sensor_type;location;lat;lon;timestamp;temperature;humidity
16976;DHT22;8604;48.148;-1.786;2022-08-20T00:00:56;15.90;99.90
16976;DHT22;8604;48.148;-1.786;2022-08-20T00:03:31;15.90;99.90
16976;DHT22;8604;48.148;-1.786;2022-08-20T00:06:04;15.80;99.90
16976;DHT22;8604;48.148;-1.786;2022-08-20T00:08:32;15.90;99.90
16976;DHT22;8604;48.148;-1.786;2022-08-20T00:11:03;15.90;99.90
16976;DHT22;8604;48.148;-1.786;2022-08-20T00:13:34;15.90;99.90
16976;DHT22;8604;48.148;-1.786;2022-08-20T00:16:03;15.90;99.90
16976;DHT22;8604;48.148;-1.786;2022-08-20T00:18:32;15.90;99.90
16976;DHT22;8604;48.148;-1.786;2022-08-20T00:21:06;15.90;99.90
16976;DHT22;8604;48.148;-1.786;2022-08-20T00:23:35;16.00;99.90
16976;DHT22;8604;48.148;-1.786;2022-08-20T00:26:05;16.00;99.90
16976;DHT22;8604;48.148;-1.786;2022-08-20T00:28:34;16.00;99.90
16976;DHT22;8604;48.148;-1.786;2022-08-20T00:31:04;16.00;99.90
16976;DHT22;8604;48.148;-1.786;2022-08-20T00:33:34;16.00;99.90
16976;DHT22;8604;48.148;-1.786;2022-08-20T00:36:05;16.00;99.90
16976;DHT22;8604;48.148;-1.786;2022-08-20T00:38:36;16.10;99.90
16976;DHT22;8604;48.148;-1.786;2022-08-20T00:41:07;16.10;99.90
16976;DHT22;8604;48.148;-1.786;2022-08-20T00:43:38;16.00;99.90
16976;DHT22;8604;48.148;-1.786;2022-08-20T00:46:09;16.00;99.90
16976;DHT22;8604;48.148;-1.786;2022-08-20T00:48:43;16.00;99.90
16976;DHT22;8604;48.148;-1.786;2022-08-20T00:51:20;16.00;99.90
16976;DHT22;8604;48.148;-1.786;2022-08-20T00:53:50;16.00;99.90
16976;DHT22;8604;48.148;-1.786;2022-08-20T00:56:19;16.00;99.90
16976;DHT22;8604;48.148;-1.786;2022-08-20T00:58:49;16.00;99.90
16976;DHT22;8604;48.148;-1.786;2022-08-20T01:01:19;16.00;99.90
16976;DHT22;8604;48.148;-1.786;2022-08-20T01:03:49;16.00;99.90
16976;DHT22;8604;48.148;-1.786;2022-08-20T01:06:24;16.00;99.90
16976;DHT22;8604;48.148;-1.786;2022-08-20T01:08:54;16.00;99.90
16976;DHT22;8604;48.148;-1.786;2022-08-20T01:11:23;16.00;99.90
16976;DHT22;8604;48.148;-1.786;2022-08-20T01:14:07;16.00;99.90
16976;DHT22;8604;48.148;-1.786;2022-08-20T01:16:48;15.90;99.90
16976;DHT22;8604;48.148;-1.786;2022-08-20T01:19:20;15.90;99.90
16976;DHT22;8604;48.148;-1.786;2022-08-20T01:21:58;15.90;99.90
16976;DHT22;8604;48.148;-1.786;2022-08-20T01:24:33;15.90;99.90
16976;DHT22;8604;48.148;-1.786;2022-08-20T01:27:04;15.90;99.90
16976;DHT22;8604;48.148;-1.786;2022-08-20T01:29:38;15.90;99.90
16976;DHT22;8604;48.148;-1.786;2022-08-20T01:32:06;15.90;99.90
16976;DHT22;8604;48.148;-1.786;2022-08-20T01:34:35;15.90;99.90
16976;DHT22;8604;48.148;-1.786;2022-08-20T01:37:03;15.90;99.90
16976;DHT22;8604;48.148;-1.786;2022-08-20T01:39:34;15.90;99.90
16976;DHT22;8604;48.148;-1.786;2022-08-20T01:42:08;15.90;99.90
16976;DHT22;8604;48.148;-1.786;2022-08-20T01:44:41;15.90;99.90
16976;DHT22;8604;48.148;-1.786;2022-08-20T01:47:14;15.90;99.90
16976;DHT22;8604;48.148;-1.786;2022-08-20T01:49:46;15.90;99.90
16976;DHT22;8604;48.148;-1.786;2022-08-20T01:52:23;15.80;99.90
16976;DHT22;8604;48.148;-1.786;2022-08-20T01:54:56;15.80;99.90
16976;DHT22;8604;48.148;-1.786;2022-08-20T01:57:26;15.90;99.90
16976;DHT22;8604;48.148;-1.786;2022-08-20T01:59:55;15.80;99.90
16976;DHT22;8604;48.148;-1.786;2022-08-20T02:02:25;15.80;99.90
16976;DHT22;8604;48.148;-1.786;2022-08-20T02:04:53;15.80;99.90
16976;DHT22;8604;48.148;-1.786;2022-08-20T02:07:22;15.80;99.90
16976;DHT22;8604;48.148;-1.786;2022-08-20T02:09:50;15.90;99.90
16976;DHT22;8604;48.148;-1.786;2022-08-20T02:12:19;15.90;99.90
16976;DHT22;8604;48.148;-1.786;2022-08-20T02:14:51;15.90;99.90
16976;DHT22;8604;48.148;-1.786;2022-08-20T02:17:22;15.80;99.90
16976;DHT22;8604;48.148;-1.786;2022-08-20T02:19:53;15.80;99.90
16976;DHT22;8604;48.148;-1.786;2022-08-20T02:22:25;15.80;99.90
16976;DHT22;8604;48.148;-1.786;2022-08-20T02:24:55;15.80;99.90
16976;DHT22;8604;48.148;-1.786;2022-08-20T02:27:24;15.80;99.90
16976;DHT22;8604;48.148;-1.786;2022-08-20T02:29:54;15.80;99.90
16976;DHT22;8604;48.148;-1.786;2022-08-20T02:32:22;15.70;99.90
16976;DHT22;8604;48.148;-1.786;2022-08-20T02:35:00;15.70;99.90
16976;DHT22;8604;48.148;-1.786;2022-08-20T02:37:30;15.70;99.90
16976;DHT22;8604;48.148;-1.786;2022-08-20T02:39:58;15.70;99.90
16976;DHT22;8604;48.148;-1.786;2022-08-20T02:42:27;15.60;99.90
16976;DHT22;8604;48.148;-1.786;2022-08-20T02:44:56;15.60;99.90
16976;DHT22;8604;48.148;-1.786;2022-08-20T02:47:25;15.60;99.90
16976;DHT22;8604;48.148;-1.786;2022-08-20T02:49:54;15.60;99.90
16976;DHT22;8604;48.148;-1.786;2022-08-20T02:52:24;15.50;99.90
16976;DHT22;8604;48.148;-1.786;2022-08-20T02:54:52;15.50;99.90
16976;DHT22;8604;48.148;-1.786;2022-08-20T02:57:20;15.50;99.90
16976;DHT22;8604;48.148;-1.786;2022-08-20T02:59:49;15.50;99.90
16976;DHT22;8604;48.148;-1.786;2022-08-20T03:02:19;15.50;99.90
16976;DHT22;8604;48.148;-1.786;2022-08-20T03:04:48;15.40;99.90
16976;DHT22;8604;48.148;-1.786;2022-08-20T03:07:16;15.50;99.90
16976;DHT22;8604;48.148;-1.786;2022-08-20T03:09:45;15.40;99.90
16976;DHT22;8604;48.148;-1.786;2022-08-20T03:12:15;15.40;99.90
16976;DHT22;8604;48.148;-1.786;2022-08-20T03:14:44;15.40;99.90
16976;DHT22;8604;48.148;-1.786;2022-08-20T03:17:12;15.40;99.90
16976;DHT22;8604;48.148;-1.786;2022-08-20T03:19:42;15.40;99.90
16976;DHT22;8604;48.148;-1.786;2022-08-20T03:22:10;15.40;99.90
16976;DHT22;8604;48.148;-1.786;2022-08-20T03:24:38;15.40;99.90
16976;DHT22;8604;48.148;-1.786;2022-08-20T03:27:07;15.40;99.90
16976;DHT22;8604;48.148;-1.786;2022-08-20T03:29:38;15.40;99.90
16976;DHT22;8604;48.148;-1.786;2022-08-20T03:32:06;15.40;99.90
16976;DHT22;8604;48.148;-1.786;2022-08-20T03:34:34;15.40;99.90
16976;DHT22;8604;48.148;-1.786;2022-08-20T03:37:04;15.40;99.90
16976;DHT22;8604;48.148;-1.786;2022-08-20T03:39:32;15.40;99.90
16976;DHT22;8604;48.148;-1.786;2022-08-20T03:42:01;15.30;99.90
16976;DHT22;8604;48.148;-1.786;2022-08-20T03:44:29;15.30;99.90
16976;DHT22;8604;48.148;-1.786;2022-08-20T03:46:57;15.30;99.90
16976;DHT22;8604;48.148;-1.786;2022-08-20T03:49:26;15.20;99.90
16976;DHT22;8604;48.148;-1.786;2022-08-20T03:51:54;15.30;99.90
16976;DHT22;8604;48.148;-1.786;2022-08-20T03:54:26;15.20;99.90
16976;DHT22;8604;48.148;-1.786;2022-08-20T03:56:59;15.20;99.90
16976;DHT22;8604;48.148;-1.786;2022-08-20T03:59:28;15.20;99.90
16976;DHT22;8604;48.148;-1.786;2022-08-20T04:01:59;15.20;99.90
16976;DHT22;8604;48.148;-1.786;2022-08-20T04:04:28;15.20;99.90
16976;DHT22;8604;48.148;-1.786;2022-08-20T04:06:56;15.10;99.90
16976;DHT22;8604;48.148;-1.786;2022-08-20T04:09:26;15.10;99.90
16976;DHT22;8604;48.148;-1.786;2022-08-20T04:11:55;15.00;99.90
16976;DHT22;8604;48.148;-1.786;2022-08-20T04:14:26;15.00;99.90
16976;DHT22;8604;48.148;-1.786;2022-08-20T04:16:55;15.00;99.90
16976;DHT22;8604;48.148;-1.786;2022-08-20T04:19:24;14.90;99.90
16976;DHT22;8604;48.148;-1.786;2022-08-20T04:21:58;14.90;99.90
16976;DHT22;8604;48.148;-1.786;2022-08-20T04:24:31;14.80;99.90
16976;DHT22;8604;48.148;-1.786;2022-08-20T04:27:01;14.70;99.90
16976;DHT22;8604;48.148;-1.786;2022-08-20T04:29:31;14.70;99.90
16976;DHT22;8604;48.148;-1.786;2022-08-20T04:32:03;14.70;99.90
16976;DHT22;8604;48.148;-1.786;2022-08-20T04:34:33;14.70;99.90
16976;DHT22;8604;48.148;-1.786;2022-08-20T04:37:03;14.70;99.90
16976;DHT22;8604;48.148;-1.786;2022-08-20T04:39:44;14.80;99.90
16976;DHT22;8604;48.148;-1.786;2022-08-20T04:42:34;14.80;99.90
16976;DHT22;8604;48.148;-1.786;2022-08-20T04:45:06;14.90;99.90
16976;DHT22;8604;48.148;-1.786;2022-08-20T04:47:35;14.90;99.90
16976;DHT22;8604;48.148;-1.786;2022-08-20T04:50:06;14.90;99.90
16976;DHT22;8604;48.148;-1.786;2022-08-20T04:52:36;14.90;99.90
16976;DHT22;8604;48.148;-1.786;2022-08-20T04:55:07;14.90;99.90
16976;DHT22;8604;48.148;-1.786;2022-08-20T04:57:36;14.90;99.90
16976;DHT22;8604;48.148;-1.786;2022-08-20T05:00:06;14.90;99.90
16976;DHT22;8604;48.148;-1.786;2022-08-20T05:02:36;14.90;99.90
16976;DHT22;8604;48.148;-1.786;2022-08-20T05:05:05;14.90;99.90
16976;DHT22;8604;48.148;-1.786;2022-08-20T05:07:37;14.90;99.90
16976;DHT22;8604;48.148;-1.786;2022-08-20T05:10:09;14.90;99.90
16976;DHT22;8604;48.148;-1.786;2022-08-20T05:12:39;14.90;99.90
16976;DHT22;8604;48.148;-1.786;2022-08-20T05:15:08;14.90;99.90
16976;DHT22;8604;48.148;-1.786;2022-08-20T05:17:38;14.90;99.90
16976;DHT22;8604;48.148;-1.786;2022-08-20T05:20:09;15.00;99.90
16976;DHT22;8604;48.148;-1.786;2022-08-20T05:22:37;15.00;99.90
16976;DHT22;8604;48.148;-1.786;2022-08-20T05:25:08;15.00;99.90
16976;DHT22;8604;48.148;-1.786;2022-08-20T05:27:36;15.00;99.90
16976;DHT22;8604;48.148;-1.786;2022-08-20T05:30:13;15.00;99.90
16976;DHT22;8604;48.148;-1.786;2022-08-20T05:32:42;15.00;99.90
16976;DHT22;8604;48.148;-1.786;2022-08-20T05:35:11;15.00;99.90
16976;DHT22;8604;48.148;-1.786;2022-08-20T05:37:39;15.00;99.90
16976;DHT22;8604;48.148;-1.786;2022-08-20T05:40:12;15.10;99.90
16976;DHT22;8604;48.148;-1.786;2022-08-20T05:42:42;15.10;99.90
16976;DHT22;8604;48.148;-1.786;2022-08-20T05:45:10;15.10;99.90
16976;DHT22;8604;48.148;-1.786;2022-08-20T05:47:41;15.10;99.90
16976;DHT22;8604;48.148;-1.786;2022-08-20T05:50:13;15.10;99.90
16976;DHT22;8604;48.148;-1.786;2022-08-20T05:52:50;15.20;99.90
16976;DHT22;8604;48.148;-1.786;2022-08-20T05:55:24;15.20;99.90
16976;DHT22;8604;48.148;-1.786;2022-08-20T05:57:57;15.30;99.90
16976;DHT22;8604;48.148;-1.786;2022-08-20T06:00:27;15.30;99.90
16976;DHT22;8604;48.148;-1.786;2022-08-20T06:02:56;15.30;99.90
16976;DHT22;8604;48.148;-1.786;2022-08-20T06:05:44;15.40;99.90
16976;DHT22;8604;48.148;-1.786;2022-08-20T06:08:16;15.40;99.90
16976;DHT22;8604;48.148;-1.786;2022-08-20T06:10:49;15.40;99.90
16976;DHT22;8604;48.148;-1.786;2022-08-20T06:13:20;15.40;99.90
16976;DHT22;8604;48.148;-1.786;2022-08-20T06:15:52;15.50;99.90
16976;DHT22;8604;48.148;-1.786;2022-08-20T06:18:24;15.50;99.90
16976;DHT22;8604;48.148;-1.786;2022-08-20T06:20:55;15.60;99.90
16976;DHT22;8604;48.148;-1.786;2022-08-20T06:23:25;15.60;99.90
16976;DHT22;8604;48.148;-1.786;2022-08-20T06:26:20;15.70;99.90
16976;DHT22;8604;48.148;-1.786;2022-08-20T06:29:00;15.80;99.90
16976;DHT22;8604;48.148;-1.786;2022-08-20T06:31:33;15.90;99.90
16976;DHT22;8604;48.148;-1.786;2022-08-20T06:34:07;15.90;99.90
16976;DHT22;8604;48.148;-1.786;2022-08-20T06:36:40;15.90;99.90
16976;DHT22;8604;48.148;-1.786;2022-08-20T06:39:16;16.00;99.90
16976;DHT22;8604;48.148;-1.786;2022-08-20T06:41:46;16.10;99.90
16976;DHT22;8604;48.148;-1.786;2022-08-20T06:44:30;16.20;99.90
16976;DHT22;8604;48.148;-1.786;2022-08-20T06:47:05;16.30;99.90
16976;DHT22;8604;48.148;-1.786;2022-08-20T06:49:35;16.50;99.90
16976;DHT22;8604;48.148;-1.786;2022-08-20T06:52:04;16.60;99.90
16976;DHT22;8604;48.148;-1.786;2022-08-20T06:54:32;16.80;99.90
16976;DHT22;8604;48.148;-1.786;2022-08-20T06:57:03;16.90;99.90
16976;DHT22;8604;48.148;-1.786;2022-08-20T06:59:31;17.00;99.90
16976;DHT22;8604;48.148;-1.786;2022-08-20T07:01:59;17.30;99.90
16976;DHT22;8604;48.148;-1.786;2022-08-20T07:04:28;17.50;99.90
16976;DHT22;8604;48.148;-1.786;2022-08-20T07:06:56;17.80;99.90
16976;DHT22;8604;48.148;-1.786;2022-08-20T07:09:26;18.00;99.90
16976;DHT22;8604;48.148;-1.786;2022-08-20T07:11:54;18.20;99.90
16976;DHT22;8604;48.148;-1.786;2022-08-20T07:14:24;18.50;99.90
16976;DHT22;8604;48.148;-1.786;2022-08-20T07:16:53;18.60;99.90
16976;DHT22;8604;48.148;-1.786;2022-08-20T07:19:21;18.80;99.90
16976;DHT22;8604;48.148;-1.786;2022-08-20T07:21:50;19.00;99.90
16976;DHT22;8604;48.148;-1.786;2022-08-20T07:24:18;19.30;99.90
16976;DHT22;8604;48.148;-1.786;2022-08-20T07:26:47;19.60;99.90
16976;DHT22;8604;48.148;-1.786;2022-08-20T07:29:18;20.00;99.90
16976;DHT22;8604;48.148;-1.786;2022-08-20T07:31:49;20.40;99.90
16976;DHT22;8604;48.148;-1.786;2022-08-20T07:34:35;20.60;99.90
16976;DHT22;8604;48.148;-1.786;2022-08-20T07:37:09;20.90;99.90
16976;DHT22;8604;48.148;-1.786;2022-08-20T07:39:37;21.30;99.90
16976;DHT22;8604;48.148;-1.786;2022-08-20T07:42:06;21.60;99.90
16976;DHT22;8604;48.148;-1.786;2022-08-20T07:44:34;22.00;99.90
16976;DHT22;8604;48.148;-1.786;2022-08-20T07:47:06;22.30;99.90
16976;DHT22;8604;48.148;-1.786;2022-08-20T07:49:36;22.70;99.90
16976;DHT22;8604;48.148;-1.786;2022-08-20T07:52:05;23.20;99.90
16976;DHT22;8604;48.148;-1.786;2022-08-20T07:54:34;23.60;99.90
16976;DHT22;8604;48.148;-1.786;2022-08-20T07:57:04;24.00;99.90
16976;DHT22;8604;48.148;-1.786;2022-08-20T07:59:32;24.50;99.90
16976;DHT22;8604;48.148;-1.786;2022-08-20T08:02:01;24.90;99.90
16976;DHT22;8604;48.148;-1.786;2022-08-20T08:04:31;25.40;99.90
16976;DHT22;8604;48.148;-1.786;2022-08-20T08:06:59;25.60;99.90
16976;DHT22;8604;48.148;-1.786;2022-08-20T08:09:28;25.90;99.90
16976;DHT22;8604;48.148;-1.786;2022-08-20T08:11:56;26.40;99.90
16976;DHT22;8604;48.148;-1.786;2022-08-20T08:14:30;26.80;99.90
16976;DHT22;8604;48.148;-1.786;2022-08-20T08:17:01;27.20;99.90
16976;DHT22;8604;48.148;-1.786;2022-08-20T08:19:37;27.50;99.90
16976;DHT22;8604;48.148;-1.786;2022-08-20T08:22:09;27.90;99.90
16976;DHT22;8604;48.148;-1.786;2022-08-20T08:24:40;28.20;99.90
16976;DHT22;8604;48.148;-1.786;2022-08-20T08:27:23;28.60;99.90
16976;DHT22;8604;48.148;-1.786;2022-08-20T08:29:52;29.00;99.90
16976;DHT22;8604;48.148;-1.786;2022-08-20T08:32:20;29.20;99.90
16976;DHT22;8604;48.148;-1.786;2022-08-20T08:34:50;29.30;99.90
16976;DHT22;8604;48.148;-1.786;2022-08-20T08:37:18;29.50;99.90
16976;DHT22;8604;48.148;-1.786;2022-08-20T08:39:47;29.80;99.90
16976;DHT22;8604;48.148;-1.786;2022-08-20T08:42:23;29.80;99.90
16976;DHT22;8604;48.148;-1.786;2022-08-20T08:44:53;30.00;99.90
16976;DHT22;8604;48.148;-1.786;2022-08-20T08:47:27;30.40;99.90
16976;DHT22;8604;48.148;-1.786;2022-08-20T08:49:57;30.70;99.90
16976;DHT22;8604;48.148;-1.786;2022-08-20T08:52:30;30.70;99.90
16976;DHT22;8604;48.148;-1.786;2022-08-20T08:55:02;30.70;99.90
16976;DHT22;8604;48.148;-1.786;2022-08-20T08:57:31;30.70;99.90
16976;DHT22;8604;48.148;-1.786;2022-08-20T09:00:03;30.90;99.90
16976;DHT22;8604;48.148;-1.786;2022-08-20T09:02:33;31.10;99.90
16976;DHT22;8604;48.148;-1.786;2022-08-20T09:05:12;31.30;99.90
16976;DHT22;8604;48.148;-1.786;2022-08-20T09:07:47;31.60;99.90
16976;DHT22;8604;48.148;-1.786;2022-08-20T09:10:17;32.10;99.90
16976;DHT22;8604;48.148;-1.786;2022-08-20T09:12:49;32.20;99.90
16976;DHT22;8604;48.148;-1.786;2022-08-20T09:15:18;32.20;99.90
16976;DHT22;8604;48.148;-1.786;2022-08-20T09:17:49;32.00;99.90
16976;DHT22;8604;48.148;-1.786;2022-08-20T09:20:19;32.00;99.90
16976;DHT22;8604;48.148;-1.786;2022-08-20T09:22:53;31.90;99.90
16976;DHT22;8604;48.148;-1.786;2022-08-20T09:25:22;32.40;99.90
16976;DHT22;8604;48.148;-1.786;2022-08-20T09:27:51;32.70;99.90
16976;DHT22;8604;48.148;-1.786;2022-08-20T09:30:20;33.00;99.90
16976;DHT22;8604;48.148;-1.786;2022-08-20T09:32:49;33.20;99.90
16976;DHT22;8604;48.148;-1.786;2022-08-20T09:35:19;33.10;99.90
16976;DHT22;8604;48.148;-1.786;2022-08-20T09:37:48;32.50;99.90
16976;DHT22;8604;48.148;-1.786;2022-08-20T09:40:18;32.10;99.90
16976;DHT22;8604;48.148;-1.786;2022-08-20T09:42:48;32.30;99.90
16976;DHT22;8604;48.148;-1.786;2022-08-20T09:45:17;31.20;99.90
16976;DHT22;8604;48.148;-1.786;2022-08-20T09:47:46;30.70;99.90
16976;DHT22;8604;48.148;-1.786;2022-08-20T09:50:40;31.20;99.90
16976;DHT22;8604;48.148;-1.786;2022-08-20T09:53:10;31.50;99.90
16976;DHT22;8604;48.148;-1.786;2022-08-20T09:55:43;31.40;99.90
16976;DHT22;8604;48.148;-1.786;2022-08-20T09:58:18;31.40;99.90
16976;DHT22;8604;48.148;-1.786;2022-08-20T10:00:47;30.80;99.90
16976;DHT22;8604;48.148;-1.786;2022-08-20T10:03:16;30.10;99.90
16976;DHT22;8604;48.148;-1.786;2022-08-20T10:05:48;29.60;99.90
16976;DHT22;8604;48.148;-1.786;2022-08-20T10:08:16;29.50;99.90
16976;DHT22;8604;48.148;-1.786;2022-08-20T10:10:45;30.50;99.90
16976;DHT22;8604;48.148;-1.786;2022-08-20T10:13:13;31.50;99.90
16976;DHT22;8604;48.148;-1.786;2022-08-20T10:15:42;32.20;99.90
16976;DHT22;8604;48.148;-1.786;2022-08-20T10:18:12;32.60;99.90
16976;DHT22;8604;48.148;-1.786;2022-08-20T10:20:41;32.70;99.90
16976;DHT22;8604;48.148;-1.786;2022-08-20T10:23:11;33.50;99.90
16976;DHT22;8604;48.148;-1.786;2022-08-20T10:25:41;33.90;99.90
16976;DHT22;8604;48.148;-1.786;2022-08-20T10:28:10;33.80;99.90
16976;DHT22;8604;48.148;-1.786;2022-08-20T10:30:38;34.00;99.90
16976;DHT22;8604;48.148;-1.786;2022-08-20T10:33:07;34.50;99.90
16976;DHT22;8604;48.148;-1.786;2022-08-20T10:35:35;34.80;99.90
16976;DHT22;8604;48.148;-1.786;2022-08-20T10:38:04;34.90;99.90
16976;DHT22;8604;48.148;-1.786;2022-08-20T10:40:34;34.30;99.90
16976;DHT22;8604;48.148;-1.786;2022-08-20T10:43:02;34.00;99.90
16976;DHT22;8604;48.148;-1.786;2022-08-20T10:45:31;34.20;99.90
16976;DHT22;8604;48.148;-1.786;2022-08-20T10:48:00;33.80;99.80
16976;DHT22;8604;48.148;-1.786;2022-08-20T10:50:29;33.00;99.70
16976;DHT22;8604;48.148;-1.786;2022-08-20T10:52:57;33.00;99.90
16976;DHT22;8604;48.148;-1.786;2022-08-20T10:55:26;32.40;99.90
16976;DHT22;8604;48.148;-1.786;2022-08-20T10:57:56;31.80;99.90
16976;DHT22;8604;48.148;-1.786;2022-08-20T11:00:24;32.20;99.90
16976;DHT22;8604;48.148;-1.786;2022-08-20T11:02:53;31.80;99.90
16976;DHT22;8604;48.148;-1.786;2022-08-20T11:05:21;32.20;99.90
16976;DHT22;8604;48.148;-1.786;2022-08-20T11:07:50;32.50;99.90
16976;DHT22;8604;48.148;-1.786;2022-08-20T11:10:23;33.10;99.90
16976;DHT22;8604;48.148;-1.786;2022-08-20T11:12:53;33.30;99.30
16976;DHT22;8604;48.148;-1.786;2022-08-20T11:15:23;33.70;99.90
16976;DHT22;8604;48.148;-1.786;2022-08-20T11:17:51;33.80;99.30
16976;DHT22;8604;48.148;-1.786;2022-08-20T11:20:23;34.00;98.20
16976;DHT22;8604;48.148;-1.786;2022-08-20T11:22:53;33.90;98.80
16976;DHT22;8604;48.148;-1.786;2022-08-20T11:25:23;34.00;99.90
16976;DHT22;8604;48.148;-1.786;2022-08-20T11:27:53;34.00;99.90
16976;DHT22;8604;48.148;-1.786;2022-08-20T11:30:26;34.00;99.10
16976;DHT22;8604;48.148;-1.786;2022-08-20T11:32:55;33.80;98.80
16976;DHT22;8604;48.148;-1.786;2022-08-20T11:35:26;33.80;99.90
16976;DHT22;8604;48.148;-1.786;2022-08-20T11:38:14;33.90;99.90
16976;DHT22;8604;48.148;-1.786;2022-08-20T11:40:43;34.00;99.90
16976;DHT22;8604;48.148;-1.786;2022-08-20T11:43:12;34.00;99.90
16976;DHT22;8604;48.148;-1.786;2022-08-20T11:45:46;34.10;99.90
16976;DHT22;8604;48.148;-1.786;2022-08-20T11:48:15;34.20;99.90
16976;DHT22;8604;48.148;-1.786;2022-08-20T11:50:44;34.30;98.90
16976;DHT22;8604;48.148;-1.786;2022-08-20T11:53:12;34.20;99.90
16976;DHT22;8604;48.148;-1.786;2022-08-20T11:55:41;33.90;98.60
16976;DHT22;8604;48.148;-1.786;2022-08-20T11:58:10;33.70;98.20
16976;DHT22;8604;48.148;-1.786;2022-08-20T12:00:39;33.50;98.70
16976;DHT22;8604;48.148;-1.786;2022-08-20T12:03:09;33.50;98.70
16976;DHT22;8604;48.148;-1.786;2022-08-20T12:05:40;33.50;97.60
16976;DHT22;8604;48.148;-1.786;2022-08-20T12:08:08;33.00;98.70
16976;DHT22;8604;48.148;-1.786;2022-08-20T12:10:55;32.70;98.30
16976;DHT22;8604;48.148;-1.786;2022-08-20T12:13:24;32.70;99.90
16976;DHT22;8604;48.148;-1.786;2022-08-20T12:16:13;32.60;99.80
16976;DHT22;8604;48.148;-1.786;2022-08-20T12:18:43;32.50;99.50
16976;DHT22;8604;48.148;-1.786;2022-08-20T12:21:12;32.20;97.80
16976;DHT22;8604;48.148;-1.786;2022-08-20T12:23:40;31.90;97.80
16976;DHT22;8604;48.148;-1.786;2022-08-20T12:26:09;31.30;98.40
16976;DHT22;8604;48.148;-1.786;2022-08-20T12:28:37;31.30;99.90
16976;DHT22;8604;48.148;-1.786;2022-08-20T12:31:06;31.10;99.90
16976;DHT22;8604;48.148;-1.786;2022-08-20T12:33:34;30.80;99.90
16976;DHT22;8604;48.148;-1.786;2022-08-20T12:36:04;30.60;99.40
16976;DHT22;8604;48.148;-1.786;2022-08-20T12:38:33;30.10;99.90
16976;DHT22;8604;48.148;-1.786;2022-08-20T12:41:01;29.70;99.90
16976;DHT22;8604;48.148;-1.786;2022-08-20T12:43:30;29.50;99.90
16976;DHT22;8604;48.148;-1.786;2022-08-20T12:45:58;29.20;99.90
16976;DHT22;8604;48.148;-1.786;2022-08-20T12:48:26;29.30;99.90
16976;DHT22;8604;48.148;-1.786;2022-08-20T12:50:55;29.10;99.90
16976;DHT22;8604;48.148;-1.786;2022-08-20T12:53:24;28.80;99.90
16976;DHT22;8604;48.148;-1.786;2022-08-20T12:55:53;28.50;99.90
16976;DHT22;8604;48.148;-1.786;2022-08-20T12:58:21;28.60;99.90
16976;DHT22;8604;48.148;-1.786;2022-08-20T13:00:49;28.60;99.90
16976;DHT22;8604;48.148;-1.786;2022-08-20T13:03:18;28.50;99.90
16976;DHT22;8604;48.148;-1.786;2022-08-20T13:05:47;28.60;99.90
16976;DHT22;8604;48.148;-1.786;2022-08-20T13:08:16;28.50;99.90
16976;DHT22;8604;48.148;-1.786;2022-08-20T13:10:47;28.70;99.90
16976;DHT22;8604;48.148;-1.786;2022-08-20T13:13:17;28.80;99.90
16976;DHT22;8604;48.148;-1.786;2022-08-20T13:15:48;28.90;99.90
16976;DHT22;8604;48.148;-1.786;2022-08-20T13:18:18;28.80;99.90
16976;DHT22;8604;48.148;-1.786;2022-08-20T13:20:47;28.70;99.90
16976;DHT22;8604;48.148;-1.786;2022-08-20T13:23:16;28.70;99.90
16976;DHT22;8604;48.148;-1.786;2022-08-20T13:25:44;28.80;99.90
16976;DHT22;8604;48.148;-1.786;2022-08-20T13:28:17;28.60;99.90
16976;DHT22;8604;48.148;-1.786;2022-08-20T13:30:45;28.50;99.90
16976;DHT22;8604;48.148;-1.786;2022-08-20T13:33:14;28.50;99.90
16976;DHT22;8604;48.148;-1.786;2022-08-20T13:35:48;28.40;99.90
16976;DHT22;8604;48.148;-1.786;2022-08-20T13:38:17;28.50;99.90
16976;DHT22;8604;48.148;-1.786;2022-08-20T13:40:45;28.40;99.90
16976;DHT22;8604;48.148;-1.786;2022-08-20T13:43:39;28.30;99.90
16976;DHT22;8604;48.148;-1.786;2022-08-20T13:46:07;28.30;99.90
16976;DHT22;8604;48.148;-1.786;2022-08-20T13:48:36;28.20;99.90
16976;DHT22;8604;48.148;-1.786;2022-08-20T13:51:05;28.20;99.90
16976;DHT22;8604;48.148;-1.786;2022-08-20T13:53:33;28.20;99.90
16976;DHT22;8604;48.148;-1.786;2022-08-20T13:56:02;28.10;99.90
16976;DHT22;8604;48.148;-1.786;2022-08-20T13:58:31;27.90;99.90
16976;DHT22;8604;48.148;-1.786;2022-08-20T14:01:01;27.90;99.90
16976;DHT22;8604;48.148;-1.786;2022-08-20T14:03:29;27.80;99.90
16976;DHT22;8604;48.148;-1.786;2022-08-20T14:06:01;27.60;99.90
16976;DHT22;8604;48.148;-1.786;2022-08-20T14:08:30;27.40;99.90
16976;DHT22;8604;48.148;-1.786;2022-08-20T14:10:59;27.40;99.90
16976;DHT22;8604;48.148;-1.786;2022-08-20T14:13:27;27.40;99.90
16976;DHT22;8604;48.148;-1.786;2022-08-20T14:15:56;27.50;99.90
16976;DHT22;8604;48.148;-1.786;2022-08-20T14:18:26;27.40;99.90
16976;DHT22;8604;48.148;-1.786;2022-08-20T14:21:04;27.40;99.90
16976;DHT22;8604;48.148;-1.786;2022-08-20T14:23:32;27.40;99.90
16976;DHT22;8604;48.148;-1.786;2022-08-20T14:26:06;27.30;99.90
16976;DHT22;8604;48.148;-1.786;2022-08-20T14:28:35;27.30;99.90
16976;DHT22;8604;48.148;-1.786;2022-08-20T14:31:03;27.30;99.90
16976;DHT22;8604;48.148;-1.786;2022-08-20T14:33:33;27.40;99.90
16976;DHT22;8604;48.148;-1.786;2022-08-20T14:36:06;27.30;99.90
16976;DHT22;8604;48.148;-1.786;2022-08-20T14:38:37;27.30;99.90
16976;DHT22;8604;48.148;-1.786;2022-08-20T14:41:11;27.30;99.90
16976;DHT22;8604;48.148;-1.786;2022-08-20T14:43:54;27.30;99.90
16976;DHT22;8604;48.148;-1.786;2022-08-20T14:46:22;27.20;99.90
16976;DHT22;8604;48.148;-1.786;2022-08-20T14:49:16;27.30;99.90
16976;DHT22;8604;48.148;-1.786;2022-08-20T14:51:45;27.40;99.90
16976;DHT22;8604;48.148;-1.786;2022-08-20T14:54:13;27.40;99.90
16976;DHT22;8604;48.148;-1.786;2022-08-20T14:56:42;27.30;99.90
16976;DHT22;8604;48.148;-1.786;2022-08-20T14:59:10;27.20;99.90
16976;DHT22;8604;48.148;-1.786;2022-08-20T15:01:46;27.30;99.90
16976;DHT22;8604;48.148;-1.786;2022-08-20T15:04:17;27.30;99.90
16976;DHT22;8604;48.148;-1.786;2022-08-20T15:06:46;27.30;99.90
16976;DHT22;8604;48.148;-1.786;2022-08-20T15:09:14;27.30;99.90
16976;DHT22;8604;48.148;-1.786;2022-08-20T15:11:43;27.20;99.90
16976;DHT22;8604;48.148;-1.786;2022-08-20T15:14:12;27.20;99.90
16976;DHT22;8604;48.148;-1.786;2022-08-20T15:16:44;27.20;99.90
16976;DHT22;8604;48.148;-1.786;2022-08-20T15:19:12;27.20;99.90
16976;DHT22;8604;48.148;-1.786;2022-08-20T15:21:42;27.20;99.90
16976;DHT22;8604;48.148;-1.786;2022-08-20T15:24:12;27.10;99.90
16976;DHT22;8604;48.148;-1.786;2022-08-20T15:26:45;27.20;99.90
16976;DHT22;8604;48.148;-1.786;2022-08-20T15:29:13;27.00;99.90
16976;DHT22;8604;48.148;-1.786;2022-08-20T15:31:49;27.00;99.90
16976;DHT22;8604;48.148;-1.786;2022-08-20T15:34:27;26.90;99.90
16976;DHT22;8604;48.148;-1.786;2022-08-20T15:37:09;26.90;99.90
16976;DHT22;8604;48.148;-1.786;2022-08-20T15:39:38;26.80;99.90
16976;DHT22;8604;48.148;-1.786;2022-08-20T15:42:08;26.80;99.90
16976;DHT22;8604;48.148;-1.786;2022-08-20T15:44:36;26.70;99.90
16976;DHT22;8604;48.148;-1.786;2022-08-20T15:47:18;26.70;99.90
16976;DHT22;8604;48.148;-1.786;2022-08-20T15:49:48;26.70;99.90
16976;DHT22;8604;48.148;-1.786;2022-08-20T15:52:18;26.70;99.90